Terminal Aerodrome Forecast
Issued by NWS Pueblo, CO

Home | Current Version | Previous Version | Text Only | Print | Product List | Glossary On
Versions: 1 2 3 4 5 6 7 8 9 10 11 12 13 14 15 16 17 18 19 20 21 22 23 24 25
000
FTUS45 KPUB 282331
TAFCOS
TAF
KCOS 282331Z 2900/2924 18008KT P6SM SCT090 SCT140
     FM290300 34006KT P6SM FEW140 SCT200
     FM291000 01010KT P6SM FEW200
     FM291600 13008KT P6SM FEW100 SCT200
     FM292100 15014KT P6SM VCTS SCT080CB BKN140=

USA.gov is the U.S. government's official web portal to all federal, state and local government web resources and services.